sensor_id;sensor_type;location;lat;lon;timestamp;P1;durP1;ratioP1;P2;durP2;ratioP2
37955;SDS011;23776;51.592;7.180;2023-05-20T00:01:07;4.78;;;1.73;;
37955;SDS011;23776;51.592;7.180;2023-05-20T00:03:33;3.08;;;2.10;;
37955;SDS011;23776;51.592;7.180;2023-05-20T00:05:59;6.38;;;2.25;;
37955;SDS011;23776;51.592;7.180;2023-05-20T00:08:25;2.88;;;2.10;;
37955;SDS011;23776;51.592;7.180;2023-05-20T00:10:50;4.95;;;1.90;;
37955;SDS011;23776;51.592;7.180;2023-05-20T00:13:16;3.97;;;1.98;;
37955;SDS011;23776;51.592;7.180;2023-05-20T00:15:42;3.67;;;2.40;;
37955;SDS011;23776;51.592;7.180;2023-05-20T00:18:08;4.07;;;2.25;;
37955;SDS011;23776;51.592;7.180;2023-05-20T00:20:34;2.88;;;1.92;;
37955;SDS011;23776;51.592;7.180;2023-05-20T00:23:00;5.57;;;2.33;;
37955;SDS011;23776;51.592;7.180;2023-05-20T00:25:25;4.97;;;2.10;;
37955;SDS011;23776;51.592;7.180;2023-05-20T00:27:51;4.70;;;2.00;;
37955;SDS011;23776;51.592;7.180;2023-05-20T00:30:17;4.38;;;2.28;;
37955;SDS011;23776;51.592;7.180;2023-05-20T00:32:43;4.90;;;2.25;;
37955;SDS011;23776;51.592;7.180;2023-05-20T00:35:09;4.97;;;2.22;;
37955;SDS011;23776;51.592;7.180;2023-05-20T00:37:35;3.88;;;2.20;;
37955;SDS011;23776;51.592;7.180;2023-05-20T00:40:01;4.05;;;1.88;;
37955;SDS011;23776;51.592;7.180;2023-05-20T00:42:27;5.13;;;1.98;;
37955;SDS011;23776;51.592;7.180;2023-05-20T00:44:53;5.47;;;2.10;;
37955;SDS011;23776;51.592;7.180;2023-05-20T00:47:20;4.53;;;2.13;;
37955;SDS011;23776;51.592;7.180;2023-05-20T00:49:50;11.55;;;2.25;;
37955;SDS011;23776;51.592;7.180;2023-05-20T00:52:16;5.95;;;2.50;;
37955;SDS011;23776;51.592;7.180;2023-05-20T00:54:43;5.25;;;1.77;;
37955;SDS011;23776;51.592;7.180;2023-05-20T00:57:09;4.57;;;2.33;;
37955;SDS011;23776;51.592;7.180;2023-05-20T00:59:36;6.30;;;2.10;;
37955;SDS011;23776;51.592;7.180;2023-05-20T01:02:02;5.30;;;1.92;;
37955;SDS011;23776;51.592;7.180;2023-05-20T01:04:29;7.00;;;2.30;;
37955;SDS011;23776;51.592;7.180;2023-05-20T01:06:55;4.60;;;2.20;;
37955;SDS011;23776;51.592;7.180;2023-05-20T01:09:22;5.30;;;2.20;;
37955;SDS011;23776;51.592;7.180;2023-05-20T01:11:55;6.38;;;2.30;;
37955;SDS011;23776;51.592;7.180;2023-05-20T01:14:27;5.65;;;2.13;;
37955;SDS011;23776;51.592;7.180;2023-05-20T01:16:56;4.32;;;2.35;;
37955;SDS011;23776;51.592;7.180;2023-05-20T01:19:27;5.22;;;2.00;;
37955;SDS011;23776;51.592;7.180;2023-05-20T01:21:59;5.10;;;1.95;;
37955;SDS011;23776;51.592;7.180;2023-05-20T01:24:30;6.60;;;2.05;;
37955;SDS011;23776;51.592;7.180;2023-05-20T01:26:56;8.73;;;2.50;;
37955;SDS011;23776;51.592;7.180;2023-05-20T01:29:25;3.40;;;1.80;;
37955;SDS011;23776;51.592;7.180;2023-05-20T01:31:51;4.80;;;2.45;;
37955;SDS011;23776;51.592;7.180;2023-05-20T01:34:18;4.78;;;2.42;;
37955;SDS011;23776;51.592;7.180;2023-05-20T01:36:44;5.05;;;2.22;;
37955;SDS011;23776;51.592;7.180;2023-05-20T01:39:11;7.45;;;2.08;;
37955;SDS011;23776;51.592;7.180;2023-05-20T01:41:37;5.00;;;2.38;;
37955;SDS011;23776;51.592;7.180;2023-05-20T01:44:04;3.72;;;2.22;;
37955;SDS011;23776;51.592;7.180;2023-05-20T01:46:33;3.53;;;2.25;;
37955;SDS011;23776;51.592;7.180;2023-05-20T01:48:59;4.00;;;2.22;;
37955;SDS011;23776;51.592;7.180;2023-05-20T01:51:25;7.82;;;2.13;;
37955;SDS011;23776;51.592;7.180;2023-05-20T01:53:51;6.13;;;3.05;;
37955;SDS011;23776;51.592;7.180;2023-05-20T01:56:17;3.88;;;2.20;;
37955;SDS011;23776;51.592;7.180;2023-05-20T01:58:43;5.22;;;2.30;;
37955;SDS011;23776;51.592;7.180;2023-05-20T02:01:09;3.88;;;1.98;;
37955;SDS011;23776;51.592;7.180;2023-05-20T02:03:35;4.82;;;2.50;;
37955;SDS011;23776;51.592;7.180;2023-05-20T02:06:01;4.05;;;2.25;;
37955;SDS011;23776;51.592;7.180;2023-05-20T02:08:27;4.38;;;2.08;;
37955;SDS011;23776;51.592;7.180;2023-05-20T02:10:53;5.05;;;2.58;;
37955;SDS011;23776;51.592;7.180;2023-05-20T02:13:19;4.40;;;2.13;;
37955;SDS011;23776;51.592;7.180;2023-05-20T02:15:45;5.07;;;1.73;;
37955;SDS011;23776;51.592;7.180;2023-05-20T02:18:10;4.65;;;2.05;;
37955;SDS011;23776;51.592;7.180;2023-05-20T02:20:36;4.10;;;1.95;;
37955;SDS011;23776;51.592;7.180;2023-05-20T02:23:02;9.35;;;2.63;;
37955;SDS011;23776;51.592;7.180;2023-05-20T02:25:30;5.57;;;2.28;;
37955;SDS011;23776;51.592;7.180;2023-05-20T02:27:56;4.70;;;2.05;;
37955;SDS011;23776;51.592;7.180;2023-05-20T02:30:22;2.85;;;2.00;;
37955;SDS011;23776;51.592;7.180;2023-05-20T02:32:48;3.50;;;2.00;;
37955;SDS011;23776;51.592;7.180;2023-05-20T02:35:13;5.43;;;2.00;;
37955;SDS011;23776;51.592;7.180;2023-05-20T02:37:40;4.70;;;1.88;;
37955;SDS011;23776;51.592;7.180;2023-05-20T02:40:08;4.95;;;2.28;;
37955;SDS011;23776;51.592;7.180;2023-05-20T02:42:34;7.90;;;2.50;;
37955;SDS011;23776;51.592;7.180;2023-05-20T02:45:00;6.85;;;2.22;;
37955;SDS011;23776;51.592;7.180;2023-05-20T02:47:27;9.40;;;2.40;;
37955;SDS011;23776;51.592;7.180;2023-05-20T02:49:53;7.35;;;2.60;;
37955;SDS011;23776;51.592;7.180;2023-05-20T02:52:19;4.05;;;1.90;;
37955;SDS011;23776;51.592;7.180;2023-05-20T02:54:45;9.20;;;2.50;;
37955;SDS011;23776;51.592;7.180;2023-05-20T02:57:11;6.50;;;2.33;;
37955;SDS011;23776;51.592;7.180;2023-05-20T02:59:37;5.70;;;2.13;;
37955;SDS011;23776;51.592;7.180;2023-05-20T03:02:02;6.47;;;2.20;;
37955;SDS011;23776;51.592;7.180;2023-05-20T03:04:28;7.57;;;2.20;;
37955;SDS011;23776;51.592;7.180;2023-05-20T03:06:55;5.18;;;2.60;;
37955;SDS011;23776;51.592;7.180;2023-05-20T03:09:22;4.35;;;2.05;;
37955;SDS011;23776;51.592;7.180;2023-05-20T03:11:48;5.28;;;2.70;;
37955;SDS011;23776;51.592;7.180;2023-05-20T03:14:15;8.18;;;2.45;;
37955;SDS011;23776;51.592;7.180;2023-05-20T03:16:40;10.02;;;2.92;;
37955;SDS011;23776;51.592;7.180;2023-05-20T03:19:06;8.38;;;2.80;;
37955;SDS011;23776;51.592;7.180;2023-05-20T03:21:32;6.15;;;2.60;;
37955;SDS011;23776;51.592;7.180;2023-05-20T03:23:58;5.75;;;2.78;;
37955;SDS011;23776;51.592;7.180;2023-05-20T03:26:24;5.57;;;2.08;;
37955;SDS011;23776;51.592;7.180;2023-05-20T03:28:50;4.95;;;2.28;;
37955;SDS011;23776;51.592;7.180;2023-05-20T03:31:16;4.43;;;2.20;;
37955;SDS011;23776;51.592;7.180;2023-05-20T03:33:41;5.13;;;2.65;;
37955;SDS011;23776;51.592;7.180;2023-05-20T03:36:09;4.75;;;2.75;;
37955;SDS011;23776;51.592;7.180;2023-05-20T03:38:35;4.15;;;2.22;;
37955;SDS011;23776;51.592;7.180;2023-05-20T03:41:01;4.75;;;2.33;;
37955;SDS011;23776;51.592;7.180;2023-05-20T03:43:27;7.47;;;2.25;;
37955;SDS011;23776;51.592;7.180;2023-05-20T03:45:53;7.75;;;2.67;;
37955;SDS011;23776;51.592;7.180;2023-05-20T03:48:18;4.63;;;2.42;;
37955;SDS011;23776;51.592;7.180;2023-05-20T03:50:44;7.00;;;2.90;;
37955;SDS011;23776;51.592;7.180;2023-05-20T03:53:10;5.13;;;2.72;;
37955;SDS011;23776;51.592;7.180;2023-05-20T03:55:36;6.03;;;2.60;;
37955;SDS011;23776;51.592;7.180;2023-05-20T03:58:03;4.65;;;2.60;;
37955;SDS011;23776;51.592;7.180;2023-05-20T04:00:29;7.35;;;2.90;;
37955;SDS011;23776;51.592;7.180;2023-05-20T04:02:55;5.18;;;2.80;;
37955;SDS011;23776;51.592;7.180;2023-05-20T04:05:22;9.93;;;2.50;;
37955;SDS011;23776;51.592;7.180;2023-05-20T04:07:48;9.68;;;3.10;;
37955;SDS011;23776;51.592;7.180;2023-05-20T04:10:17;6.25;;;2.50;;
37955;SDS011;23776;51.592;7.180;2023-05-20T04:12:43;4.80;;;2.60;;
37955;SDS011;23776;51.592;7.180;2023-05-20T04:15:09;3.35;;;2.25;;
37955;SDS011;23776;51.592;7.180;2023-05-20T04:17:35;5.47;;;2.58;;
37955;SDS011;23776;51.592;7.180;2023-05-20T04:20:02;5.03;;;2.85;;
37955;SDS011;23776;51.592;7.180;2023-05-20T04:22:31;4.78;;;2.65;;
37955;SDS011;23776;51.592;7.180;2023-05-20T04:24:57;4.88;;;2.55;;
37955;SDS011;23776;51.592;7.180;2023-05-20T04:27:23;7.03;;;2.88;;
37955;SDS011;23776;51.592;7.180;2023-05-20T04:29:50;6.32;;;2.42;;
37955;SDS011;23776;51.592;7.180;2023-05-20T04:32:17;3.97;;;2.22;;
37955;SDS011;23776;51.592;7.180;2023-05-20T04:34:43;6.35;;;2.67;;
37955;SDS011;23776;51.592;7.180;2023-05-20T04:37:10;5.63;;;3.00;;
37955;SDS011;23776;51.592;7.180;2023-05-20T04:39:36;6.00;;;3.15;;
37955;SDS011;23776;51.592;7.180;2023-05-20T04:42:03;7.25;;;2.47;;
37955;SDS011;23776;51.592;7.180;2023-05-20T04:44:29;4.63;;;2.42;;
37955;SDS011;23776;51.592;7.180;2023-05-20T04:46:55;5.88;;;2.85;;
37955;SDS011;23776;51.592;7.180;2023-05-20T04:49:24;5.35;;;2.67;;
37955;SDS011;23776;51.592;7.180;2023-05-20T04:51:50;6.95;;;2.60;;
37955;SDS011;23776;51.592;7.180;2023-05-20T04:54:16;7.88;;;2.80;;
37955;SDS011;23776;51.592;7.180;2023-05-20T04:56:44;7.10;;;3.03;;
37955;SDS011;23776;51.592;7.180;2023-05-20T04:59:10;6.72;;;3.08;;
37955;SDS011;23776;51.592;7.180;2023-05-20T05:01:37;5.60;;;2.80;;
37955;SDS011;23776;51.592;7.180;2023-05-20T05:04:03;6.30;;;2.58;;
37955;SDS011;23776;51.592;7.180;2023-05-20T05:06:29;4.15;;;2.90;;
37955;SDS011;23776;51.592;7.180;2023-05-20T05:08:55;8.38;;;2.70;;
37955;SDS011;23776;51.592;7.180;2023-05-20T05:11:21;8.57;;;3.13;;
37955;SDS011;23776;51.592;7.180;2023-05-20T05:13:47;7.65;;;3.00;;
37955;SDS011;23776;51.592;7.180;2023-05-20T05:16:13;6.30;;;3.03;;
37955;SDS011;23776;51.592;7.180;2023-05-20T05:18:39;8.02;;;3.25;;
37955;SDS011;23776;51.592;7.180;2023-05-20T05:21:05;7.47;;;2.92;;
37955;SDS011;23776;51.592;7.180;2023-05-20T05:23:32;7.00;;;3.33;;
37955;SDS011;23776;51.592;7.180;2023-05-20T05:25:57;4.15;;;2.55;;
37955;SDS011;23776;51.592;7.180;2023-05-20T05:28:23;6.70;;;2.40;;
37955;SDS011;23776;51.592;7.180;2023-05-20T05:30:49;7.97;;;3.03;;
37955;SDS011;23776;51.592;7.180;2023-05-20T05:33:15;7.70;;;3.22;;
37955;SDS011;23776;51.592;7.180;2023-05-20T05:35:41;7.40;;;3.13;;
37955;SDS011;23776;51.592;7.180;2023-05-20T05:38:08;4.43;;;3.05;;
37955;SDS011;23776;51.592;7.180;2023-05-20T05:40:34;8.63;;;3.13;;
37955;SDS011;23776;51.592;7.180;2023-05-20T05:43:00;7.15;;;3.05;;
37955;SDS011;23776;51.592;7.180;2023-05-20T05:45:26;5.60;;;2.70;;
37955;SDS011;23776;51.592;7.180;2023-05-20T05:47:51;4.63;;;2.92;;
37955;SDS011;23776;51.592;7.180;2023-05-20T05:50:17;7.88;;;3.60;;
37955;SDS011;23776;51.592;7.180;2023-05-20T05:52:43;6.25;;;3.63;;
37955;SDS011;23776;51.592;7.180;2023-05-20T05:55:09;5.38;;;2.83;;
37955;SDS011;23776;51.592;7.180;2023-05-20T05:57:35;7.57;;;3.15;;
37955;SDS011;23776;51.592;7.180;2023-05-20T06:00:01;4.43;;;2.70;;
37955;SDS011;23776;51.592;7.180;2023-05-20T06:02:27;6.50;;;2.90;;
37955;SDS011;23776;51.592;7.180;2023-05-20T06:04:52;5.97;;;3.17;;
37955;SDS011;23776;51.592;7.180;2023-05-20T06:07:18;7.65;;;3.53;;
37955;SDS011;23776;51.592;7.180;2023-05-20T06:09:44;8.57;;;3.22;;
37955;SDS011;23776;51.592;7.180;2023-05-20T06:12:10;8.70;;;3.58;;
37955;SDS011;23776;51.592;7.180;2023-05-20T06:14:36;4.93;;;2.92;;
37955;SDS011;23776;51.592;7.180;2023-05-20T06:17:02;4.55;;;2.97;;
37955;SDS011;23776;51.592;7.180;2023-05-20T06:19:28;8.70;;;3.58;;
37955;SDS011;23776;51.592;7.180;2023-05-20T06:21:55;11.65;;;3.30;;
37955;SDS011;23776;51.592;7.180;2023-05-20T06:24:22;8.40;;;3.22;;
37955;SDS011;23776;51.592;7.180;2023-05-20T06:26:48;7.57;;;3.10;;
37955;SDS011;23776;51.592;7.180;2023-05-20T06:29:15;15.55;;;4.03;;
37955;SDS011;23776;51.592;7.180;2023-05-20T06:31:41;7.07;;;3.90;;
37955;SDS011;23776;51.592;7.180;2023-05-20T06:34:07;6.85;;;3.70;;
37955;SDS011;23776;51.592;7.180;2023-05-20T06:36:33;6.78;;;3.50;;
37955;SDS011;23776;51.592;7.180;2023-05-20T06:38:59;12.02;;;4.00;;
37955;SDS011;23776;51.592;7.180;2023-05-20T06:41:25;6.43;;;3.33;;
37955;SDS011;23776;51.592;7.180;2023-05-20T06:43:51;4.90;;;3.15;;
37955;SDS011;23776;51.592;7.180;2023-05-20T06:46:17;9.45;;;3.92;;
37955;SDS011;23776;51.592;7.180;2023-05-20T06:48:43;8.18;;;3.72;;
37955;SDS011;23776;51.592;7.180;2023-05-20T06:51:09;10.48;;;4.10;;
37955;SDS011;23776;51.592;7.180;2023-05-20T06:53:35;8.98;;;3.83;;
37955;SDS011;23776;51.592;7.180;2023-05-20T06:56:01;9.15;;;3.75;;
37955;SDS011;23776;51.592;7.180;2023-05-20T06:58:27;5.60;;;3.53;;
37955;SDS011;23776;51.592;7.180;2023-05-20T07:00:53;13.00;;;4.00;;
37955;SDS011;23776;51.592;7.180;2023-05-20T07:03:19;6.50;;;4.13;;
37955;SDS011;23776;51.592;7.180;2023-05-20T07:05:45;8.32;;;4.20;;
37955;SDS011;23776;51.592;7.180;2023-05-20T07:08:11;11.20;;;3.83;;
37955;SDS011;23776;51.592;7.180;2023-05-20T07:10:37;8.27;;;4.15;;
37955;SDS011;23776;51.592;7.180;2023-05-20T07:13:04;8.00;;;3.97;;
37955;SDS011;23776;51.592;7.180;2023-05-20T07:15:30;8.88;;;3.90;;
37955;SDS011;23776;51.592;7.180;2023-05-20T07:17:56;8.40;;;3.80;;
37955;SDS011;23776;51.592;7.180;2023-05-20T07:20:23;9.82;;;4.45;;
37955;SDS011;23776;51.592;7.180;2023-05-20T07:22:49;7.40;;;4.75;;
37955;SDS011;23776;51.592;7.180;2023-05-20T07:25:15;8.55;;;4.32;;
37955;SDS011;23776;51.592;7.180;2023-05-20T07:27:41;7.47;;;4.70;;
37955;SDS011;23776;51.592;7.180;2023-05-20T07:30:07;10.55;;;5.68;;
37955;SDS011;23776;51.592;7.180;2023-05-20T07:32:33;11.07;;;5.15;;
37955;SDS011;23776;51.592;7.180;2023-05-20T07:34:59;12.40;;;4.55;;
37955;SDS011;23776;51.592;7.180;2023-05-20T07:37:25;8.77;;;5.10;;
37955;SDS011;23776;51.592;7.180;2023-05-20T07:39:51;9.48;;;4.85;;
37955;SDS011;23776;51.592;7.180;2023-05-20T07:42:17;9.80;;;4.82;;
37955;SDS011;23776;51.592;7.180;2023-05-20T07:44:43;8.88;;;5.13;;
37955;SDS011;23776;51.592;7.180;2023-05-20T07:47:09;12.73;;;4.63;;
37955;SDS011;23776;51.592;7.180;2023-05-20T07:49:35;8.60;;;4.80;;
37955;SDS011;23776;51.592;7.180;2023-05-20T07:52:01;8.77;;;4.50;;
37955;SDS011;23776;51.592;7.180;2023-05-20T07:54:27;11.07;;;4.93;;
37955;SDS011;23776;51.592;7.180;2023-05-20T07:56:53;9.35;;;5.07;;
37955;SDS011;23776;51.592;7.180;2023-05-20T07:59:18;10.02;;;5.53;;
37955;SDS011;23776;51.592;7.180;2023-05-20T08:01:45;9.73;;;4.85;;
37955;SDS011;23776;51.592;7.180;2023-05-20T08:04:11;10.77;;;5.22;;
37955;SDS011;23776;51.592;7.180;2023-05-20T08:06:37;12.27;;;5.75;;
37955;SDS011;23776;51.592;7.180;2023-05-20T08:09:03;12.77;;;5.70;;
37955;SDS011;23776;51.592;7.180;2023-05-20T08:11:30;8.27;;;4.72;;
37955;SDS011;23776;51.592;7.180;2023-05-20T08:13:56;8.27;;;4.68;;
37955;SDS011;23776;51.592;7.180;2023-05-20T08:16:22;11.00;;;5.40;;
37955;SDS011;23776;51.592;7.180;2023-05-20T08:18:48;11.27;;;4.95;;
37955;SDS011;23776;51.592;7.180;2023-05-20T08:21:14;12.10;;;5.60;;
37955;SDS011;23776;51.592;7.180;2023-05-20T08:23:40;10.68;;;5.90;;
37955;SDS011;23776;51.592;7.180;2023-05-20T08:26:06;13.25;;;5.70;;
37955;SDS011;23776;51.592;7.180;2023-05-20T08:28:32;9.50;;;5.57;;
37955;SDS011;23776;51.592;7.180;2023-05-20T08:31:00;9.95;;;6.03;;
37955;SDS011;23776;51.592;7.180;2023-05-20T08:33:26;10.70;;;5.60;;
37955;SDS011;23776;51.592;7.180;2023-05-20T08:35:51;12.70;;;5.35;;
37955;SDS011;23776;51.592;7.180;2023-05-20T08:38:17;13.95;;;6.25;;
37955;SDS011;23776;51.592;7.180;2023-05-20T08:40:43;13.18;;;5.97;;
37955;SDS011;23776;51.592;7.180;2023-05-20T08:43:09;13.23;;;6.18;;
37955;SDS011;23776;51.592;7.180;2023-05-20T08:45:36;11.73;;;5.60;;
37955;SDS011;23776;51.592;7.180;2023-05-20T08:48:03;10.55;;;6.20;;
37955;SDS011;23776;51.592;7.180;2023-05-20T08:50:29;10.98;;;6.13;;
37955;SDS011;23776;51.592;7.180;2023-05-20T08:52:55;12.43;;;5.72;;
37955;SDS011;23776;51.592;7.180;2023-05-20T08:55:25;10.07;;;5.50;;
37955;SDS011;23776;51.592;7.180;2023-05-20T08:58:02;11.63;;;6.10;;
37955;SDS011;23776;51.592;7.180;2023-05-20T09:00:28;13.43;;;5.93;;
37955;SDS011;23776;51.592;7.180;2023-05-20T09:02:54;12.02;;;5.63;;
37955;SDS011;23776;51.592;7.180;2023-05-20T09:05:21;8.90;;;5.28;;
37955;SDS011;23776;51.592;7.180;2023-05-20T09:07:47;11.13;;;5.72;;
37955;SDS011;23776;51.592;7.180;2023-05-20T09:10:13;10.50;;;5.53;;
37955;SDS011;23776;51.592;7.180;2023-05-20T09:12:39;12.70;;;6.00;;
37955;SDS011;23776;51.592;7.180;2023-05-20T09:15:05;14.15;;;5.10;;
37955;SDS011;23776;51.592;7.180;2023-05-20T09:17:35;12.50;;;5.50;;
37955;SDS011;23776;51.592;7.180;2023-05-20T09:20:04;10.45;;;5.65;;
37955;SDS011;23776;51.592;7.180;2023-05-20T09:22:34;12.30;;;6.38;;
37955;SDS011;23776;51.592;7.180;2023-05-20T09:25:00;9.45;;;5.55;;
37955;SDS011;23776;51.592;7.180;2023-05-20T09:27:26;12.20;;;6.43;;
37955;SDS011;23776;51.592;7.180;2023-05-20T09:29:52;9.15;;;5.68;;
37955;SDS011;23776;51.592;7.180;2023-05-20T09:32:19;11.30;;;5.35;;
37955;SDS011;23776;51.592;7.180;2023-05-20T09:34:47;9.32;;;4.82;;
37955;SDS011;23776;51.592;7.180;2023-05-20T09:37:13;13.43;;;5.00;;
37955;SDS011;23776;51.592;7.180;2023-05-20T09:39:48;8.52;;;5.40;;
37955;SDS011;23776;51.592;7.180;2023-05-20T09:42:22;9.63;;;5.15;;
37955;SDS011;23776;51.592;7.180;2023-05-20T09:44:53;10.00;;;5.38;;
37955;SDS011;23776;51.592;7.180;2023-05-20T09:47:19;13.70;;;5.43;;
37955;SDS011;23776;51.592;7.180;2023-05-20T09:49:45;13.23;;;5.18;;
37955;SDS011;23776;51.592;7.180;2023-05-20T09:52:13;6.93;;;4.22;;
37955;SDS011;23776;51.592;7.180;2023-05-20T09:54:39;8.98;;;4.68;;
37955;SDS011;23776;51.592;7.180;2023-05-20T09:57:06;11.88;;;6.10;;
37955;SDS011;23776;51.592;7.180;2023-05-20T09:59:34;6.93;;;4.35;;
37955;SDS011;23776;51.592;7.180;2023-05-20T10:02:01;8.85;;;4.47;;
37955;SDS011;23776;51.592;7.180;2023-05-20T10:04:27;7.00;;;4.32;;
37955;SDS011;23776;51.592;7.180;2023-05-20T10:09:53;8.50;;;4.47;;
37955;SDS011;23776;51.592;7.180;2023-05-20T10:12:38;8.57;;;4.75;;
37955;SDS011;23776;51.592;7.180;2023-05-20T10:15:17;10.25;;;4.70;;
37955;SDS011;23776;51.592;7.180;2023-05-20T10:18:03;6.45;;;4.13;;
37955;SDS011;23776;51.592;7.180;2023-05-20T10:20:47;7.82;;;4.90;;
37955;SDS011;23776;51.592;7.180;2023-05-20T10:23:23;5.53;;;4.55;;
37955;SDS011;23776;51.592;7.180;2023-05-20T10:25:53;8.98;;;4.45;;
37955;SDS011;23776;51.592;7.180;2023-05-20T10:28:35;6.22;;;4.18;;
37955;SDS011;23776;51.592;7.180;2023-05-20T10:31:22;9.20;;;4.28;;
37955;SDS011;23776;51.592;7.180;2023-05-20T10:33:51;6.30;;;4.18;;
37955;SDS011;23776;51.592;7.180;2023-05-20T10:36:27;9.75;;;4.72;;
37955;SDS011;23776;51.592;7.180;2023-05-20T10:38:56;9.52;;;4.72;;
37955;SDS011;23776;51.592;7.180;2023-05-20T10:41:24;8.55;;;4.60;;
37955;SDS011;23776;51.592;7.180;2023-05-20T10:44:03;7.93;;;4.50;;
37955;SDS011;23776;51.592;7.180;2023-05-20T10:46:30;7.30;;;4.55;;
37955;SDS011;23776;51.592;7.180;2023-05-20T10:48:57;6.15;;;4.88;;
37955;SDS011;23776;51.592;7.180;2023-05-20T10:51:23;6.78;;;4.57;;
37955;SDS011;23776;51.592;7.180;2023-05-20T10:53:53;13.85;;;5.18;;
37955;SDS011;23776;51.592;7.180;2023-05-20T10:56:20;8.50;;;4.40;;
37955;SDS011;23776;51.592;7.180;2023-05-20T10:58:47;6.30;;;4.97;;
37955;SDS011;23776;51.592;7.180;2023-05-20T11:01:14;11.40;;;5.70;;
37955;SDS011;23776;51.592;7.180;2023-05-20T11:03:40;10.52;;;4.95;;
37955;SDS011;23776;51.592;7.180;2023-05-20T11:06:10;6.90;;;4.60;;
37955;SDS011;23776;51.592;7.180;2023-05-20T11:08:40;12.40;;;5.72;;
37955;SDS011;23776;51.592;7.180;2023-05-20T11:11:06;10.70;;;5.60;;
37955;SDS011;23776;51.592;7.180;2023-05-20T11:13:32;11.50;;;5.22;;
37955;SDS011;23776;51.592;7.180;2023-05-20T11:15:59;9.45;;;5.55;;
37955;SDS011;23776;51.592;7.180;2023-05-20T11:18:28;7.97;;;4.78;;
37955;SDS011;23776;51.592;7.180;2023-05-20T11:20:54;8.45;;;4.57;;
37955;SDS011;23776;51.592;7.180;2023-05-20T11:23:21;12.02;;;4.82;;
37955;SDS011;23776;51.592;7.180;2023-05-20T11:25:50;7.90;;;4.88;;
37955;SDS011;23776;51.592;7.180;2023-05-20T11:28:16;9.38;;;5.18;;
37955;SDS011;23776;51.592;7.180;2023-05-20T11:30:45;7.40;;;4.43;;
37955;SDS011;23776;51.592;7.180;2023-05-20T11:33:12;7.53;;;4.32;;
37955;SDS011;23776;51.592;7.180;2023-05-20T11:35:43;8.30;;;4.53;;
37955;SDS011;23776;51.592;7.180;2023-05-20T11:38:14;8.45;;;3.90;;
37955;SDS011;23776;51.592;7.180;2023-05-20T11:40:53;6.30;;;3.67;;
37955;SDS011;23776;51.592;7.180;2023-05-20T11:43:20;9.32;;;3.85;;
37955;SDS011;23776;51.592;7.180;2023-05-20T11:45:51;8.02;;;4.55;;
37955;SDS011;23776;51.592;7.180;2023-05-20T11:48:19;5.85;;;4.10;;
37955;SDS011;23776;51.592;7.180;2023-05-20T11:50:45;9.13;;;4.00;;
37955;SDS011;23776;51.592;7.180;2023-05-20T11:53:16;5.40;;;3.47;;
37955;SDS011;23776;51.592;7.180;2023-05-20T11:55:45;7.75;;;3.63;;
37955;SDS011;23776;51.592;7.180;2023-05-20T12:00:44;6.82;;;2.80;;
37955;SDS011;23776;51.592;7.180;2023-05-20T12:03:09;4.90;;;3.17;;
37955;SDS011;23776;51.592;7.180;2023-05-20T12:05:35;6.60;;;3.55;;
37955;SDS011;23776;51.592;7.180;2023-05-20T12:08:01;6.35;;;3.50;;
37955;SDS011;23776;51.592;7.180;2023-05-20T12:10:27;9.38;;;3.95;;
37955;SDS011;23776;51.592;7.180;2023-05-20T12:12:53;7.72;;;3.10;;
37955;SDS011;23776;51.592;7.180;2023-05-20T12:15:19;5.53;;;3.17;;
37955;SDS011;23776;51.592;7.180;2023-05-20T12:17:46;8.48;;;3.53;;
37955;SDS011;23776;51.592;7.180;2023-05-20T12:20:14;5.88;;;3.53;;
37955;SDS011;23776;51.592;7.180;2023-05-20T12:22:41;6.22;;;3.10;;
37955;SDS011;23776;51.592;7.180;2023-05-20T12:25:13;7.22;;;3.53;;
37955;SDS011;23776;51.592;7.180;2023-05-20T12:27:43;4.57;;;3.17;;
37955;SDS011;23776;51.592;7.180;2023-05-20T12:30:13;6.55;;;3.88;;
37955;SDS011;23776;51.592;7.180;2023-05-20T12:32:43;5.25;;;2.95;;
37955;SDS011;23776;51.592;7.180;2023-05-20T12:35:09;9.30;;;3.38;;
37955;SDS011;23776;51.592;7.180;2023-05-20T12:37:39;3.97;;;3.10;;
37955;SDS011;23776;51.592;7.180;2023-05-20T12:40:06;5.07;;;2.72;;
37955;SDS011;23776;51.592;7.180;2023-05-20T12:42:39;5.25;;;3.08;;
37955;SDS011;23776;51.592;7.180;2023-05-20T12:45:06;5.18;;;3.25;;
37955;SDS011;23776;51.592;7.180;2023-05-20T12:47:36;6.40;;;3.58;;
37955;SDS011;23776;51.592;7.180;2023-05-20T12:50:02;5.47;;;3.15;;
37955;SDS011;23776;51.592;7.180;2023-05-20T12:52:28;7.82;;;4.07;;
37955;SDS011;23776;51.592;7.180;2023-05-20T12:54:54;7.75;;;3.40;;
37955;SDS011;23776;51.592;7.180;2023-05-20T12:57:21;4.97;;;3.13;;
37955;SDS011;23776;51.592;7.180;2023-05-20T12:59:50;4.15;;;3.10;;
37955;SDS011;23776;51.592;7.180;2023-05-20T13:02:16;4.30;;;3.08;;
37955;SDS011;23776;51.592;7.180;2023-05-20T13:04:41;8.40;;;3.00;;
37955;SDS011;23776;51.592;7.180;2023-05-20T13:07:07;4.85;;;3.17;;
37955;SDS011;23776;51.592;7.180;2023-05-20T13:09:33;5.18;;;3.03;;
37955;SDS011;23776;51.592;7.180;2023-05-20T13:11:59;3.60;;;2.13;;
37955;SDS011;23776;51.592;7.180;2023-05-20T13:14:26;6.70;;;2.63;;
37955;SDS011;23776;51.592;7.180;2023-05-20T13:16:52;4.82;;;2.80;;
37955;SDS011;23776;51.592;7.180;2023-05-20T13:19:21;5.68;;;2.42;;
37955;SDS011;23776;51.592;7.180;2023-05-20T13:21:48;6.95;;;2.28;;
37955;SDS011;23776;51.592;7.180;2023-05-20T13:24:15;3.58;;;2.22;;
37955;SDS011;23776;51.592;7.180;2023-05-20T13:26:41;2.38;;;2.15;;
37955;SDS011;23776;51.592;7.180;2023-05-20T13:29:07;3.50;;;2.25;;
37955;SDS011;23776;51.592;7.180;2023-05-20T13:31:34;3.90;;;2.50;;
37955;SDS011;23776;51.592;7.180;2023-05-20T13:34:00;3.60;;;1.92;;
37955;SDS011;23776;51.592;7.180;2023-05-20T13:36:26;4.07;;;1.98;;
37955;SDS011;23776;51.592;7.180;2023-05-20T13:38:51;11.50;;;3.75;;
37955;SDS011;23776;51.592;7.180;2023-05-20T13:41:17;5.10;;;2.90;;
37955;SDS011;23776;51.592;7.180;2023-05-20T13:43:46;5.90;;;2.65;;
37955;SDS011;23776;51.592;7.180;2023-05-20T13:46:12;3.60;;;2.78;;
37955;SDS011;23776;51.592;7.180;2023-05-20T13:48:38;7.13;;;2.78;;
37955;SDS011;23776;51.592;7.180;2023-05-20T13:51:03;4.93;;;3.20;;
37955;SDS011;23776;51.592;7.180;2023-05-20T13:53:29;7.55;;;2.58;;
37955;SDS011;23776;51.592;7.180;2023-05-20T13:55:55;3.35;;;2.70;;
37955;SDS011;23776;51.592;7.180;2023-05-20T13:58:21;11.02;;;2.75;;
37955;SDS011;23776;51.592;7.180;2023-05-20T14:00:47;3.97;;;2.60;;
37955;SDS011;23776;51.592;7.180;2023-05-20T14:03:13;4.63;;;3.03;;
37955;SDS011;23776;51.592;7.180;2023-05-20T14:05:39;4.63;;;3.03;;
37955;SDS011;23776;51.592;7.180;2023-05-20T14:08:05;5.20;;;3.28;;
37955;SDS011;23776;51.592;7.180;2023-05-20T14:10:31;4.50;;;3.13;;
37955;SDS011;23776;51.592;7.180;2023-05-20T14:12:57;5.40;;;3.22;;
37955;SDS011;23776;51.592;7.180;2023-05-20T14:15:26;4.75;;;2.65;;
37955;SDS011;23776;51.592;7.180;2023-05-20T14:17:54;6.32;;;2.63;;
37955;SDS011;23776;51.592;7.180;2023-05-20T14:20:21;5.85;;;2.83;;
37955;SDS011;23776;51.592;7.180;2023-05-20T14:22:47;6.38;;;3.20;;
37955;SDS011;23776;51.592;7.180;2023-05-20T14:25:13;4.18;;;3.00;;
37955;SDS011;23776;51.592;7.180;2023-05-20T14:27:39;5.35;;;3.13;;
37955;SDS011;23776;51.592;7.180;2023-05-20T14:30:05;6.00;;;3.05;;
37955;SDS011;23776;51.592;7.180;2023-05-20T14:32:31;5.60;;;2.58;;
37955;SDS011;23776;51.592;7.180;2023-05-20T14:34:57;6.32;;;3.15;;
37955;SDS011;23776;51.592;7.180;2023-05-20T14:37:24;5.88;;;2.92;;
37955;SDS011;23776;51.592;7.180;2023-05-20T14:39:51;5.82;;;3.28;;
37955;SDS011;23776;51.592;7.180;2023-05-20T14:42:17;6.43;;;3.58;;
37955;SDS011;23776;51.592;7.180;2023-05-20T14:44:43;6.97;;;3.03;;
37955;SDS011;23776;51.592;7.180;2023-05-20T14:47:09;8.02;;;3.78;;
37955;SDS011;23776;51.592;7.180;2023-05-20T14:49:36;6.65;;;3.00;;